createdAt,value
2022-08-07T06:40:35.065Z,97265.25
2022-08-07T06:43:20.864Z,97261.69
2022-08-07T06:45:52.181Z,97260.84
2022-08-07T06:48:25.297Z,97257.31
2022-08-07T06:50:54.887Z,97257.81
2022-08-07T06:55:29.920Z,97262.00
2022-08-07T06:56:15.833Z,97251.31
2022-08-07T07:00:12.238Z,97258.47
2022-08-07T07:01:44.010Z,97263.41
2022-08-07T07:04:28.279Z,97255.41
2022-08-07T07:07:18.844Z,97257.47
2022-08-07T07:09:48.363Z,97253.69
2022-08-07T07:12:31.482Z,97245.41
2022-08-07T07:15:04.316Z,97246.94
2022-08-07T07:17:45.441Z,97250.50
2022-08-07T07:20:22.697Z,97258.00
2022-08-07T07:24:05.473Z,97254.44
2022-08-07T07:26:35.579Z,97254.06
2022-08-07T07:29:23.577Z,97253.75
2022-08-07T07:31:40.167Z,97251.75
2022-08-07T07:34:17.779Z,97241.03
2022-08-07T07:36:52.614Z,97245.19
2022-08-07T07:39:23.611Z,97252.09
2022-08-07T07:42:13.037Z,97255.66
2022-08-07T07:44:49.576Z,97252.31
2022-08-07T07:47:23.886Z,97250.34
2022-08-07T07:50:33.698Z,97242.25
2022-08-07T07:52:55.931Z,97237.09
2022-08-07T07:55:26.227Z,97235.44
2022-08-07T07:58:06.851Z,97236.81
2022-08-07T08:00:37.649Z,97242.81
2022-08-07T08:03:09.250Z,97228.34
2022-08-07T08:05:54.833Z,97230.41
2022-08-07T08:08:32.275Z,97230.34
2022-08-07T08:11:08.392Z,97231.84
2022-08-07T08:13:54.255Z,97229.03
2022-08-07T08:16:31.875Z,97226.78
2022-08-07T08:19:17.919Z,97220.03
2022-08-07T08:22:10.964Z,97218.38
2022-08-07T08:25:19.133Z,97224.56
2022-08-07T08:27:57.128Z,97225.22
2022-08-07T08:30:28.963Z,97224.56
2022-08-07T08:33:01.709Z,97224.97
2022-08-07T08:35:39.560Z,97222.38
2022-08-07T08:38:15.825Z,97232.84
2022-08-07T08:40:51.224Z,97227.06
2022-08-07T08:43:42.146Z,97228.41
2022-08-07T08:46:15.841Z,97230.56
2022-08-07T08:48:54.782Z,97224.78
2022-08-07T08:51:49.647Z,97228.56
2022-08-07T08:54:24.904Z,97234.19
2022-08-07T08:56:54.665Z,97219.34
2022-08-07T08:59:29.305Z,97223.94
2022-08-07T09:02:04.970Z,97212.03
2022-08-07T09:04:47.227Z,97230.72
2022-08-07T09:07:23.010Z,97208.16
2022-08-07T09:10:08.049Z,97220.72
2022-08-07T09:12:53.318Z,97213.84
2022-08-07T09:16:25.763Z,97215.19
2022-08-07T09:18:58.586Z,97208.34
2022-08-07T09:25:17.822Z,97208.34
2022-08-07T09:30:03.182Z,97214.22
2022-08-07T09:34:22.003Z,97210.13
2022-08-07T09:37:33.658Z,97209.63
2022-08-07T09:40:33.354Z,97217.19
2022-08-07T09:43:14.562Z,97207.66
2022-08-07T09:47:42.457Z,97198.09
2022-08-07T09:50:01.780Z,97196.28
2022-08-07T09:52:10.926Z,97203.03
2022-08-07T09:54:47.879Z,97200.09
2022-08-07T09:57:56.708Z,97198.34
2022-08-07T10:00:31.993Z,97195.72
2022-08-07T10:04:03.694Z,97190.69
2022-08-07T10:06:55.497Z,97179.81
2022-08-07T10:10:00.179Z,97176.38
2022-08-07T10:12:53.299Z,97180.94
2022-08-07T10:15:47.324Z,97176.72
2022-08-07T10:18:35.351Z,97173.00
2022-08-07T10:22:14.906Z,97179.50
2022-08-07T10:24:29.811Z,97167.28
2022-08-07T10:27:17.573Z,97174.50
2022-08-07T10:30:28.093Z,97167.38
2022-08-07T10:34:15.750Z,97168.09
2022-08-07T10:40:59.265Z,97155.66
2022-08-07T10:43:34.683Z,97150.09
2022-08-07T10:46:11.500Z,97153.34
2022-08-07T10:48:49.205Z,97144.00
2022-08-07T10:51:57.743Z,97150.97
2022-08-07T10:54:23.433Z,97139.50
2022-08-07T10:57:08.112Z,97143.28
2022-08-07T10:59:58.859Z,97135.81
2022-08-07T11:02:34.221Z,97132.38
2022-08-07T11:05:35.603Z,97135.03
2022-08-07T11:08:29.080Z,97135.34
2022-08-07T11:11:04.578Z,97133.75
2022-08-07T11:14:42.665Z,97120.94
2022-08-07T11:16:30.881Z,97116.13
2022-08-07T11:19:06.920Z,97112.13
2022-08-07T11:21:42.868Z,97112.69
2022-08-07T11:24:19.408Z,97107.06
2022-08-07T11:26:53.754Z,97108.97
2022-08-07T11:29:41.865Z,97100.94
2022-08-07T11:32:25.807Z,97098.53
2022-08-07T11:34:58.311Z,97096.69
2022-08-07T11:37:58.019Z,97087.34
2022-08-07T11:40:38.949Z,97092.38
2022-08-07T11:43:15.426Z,97087.84
2022-08-07T11:46:06.457Z,97086.22
2022-08-07T11:49:50.884Z,97077.91
2022-08-07T11:52:14.299Z,97080.84
2022-08-07T11:55:03.083Z,97084.84
2022-08-07T11:57:57.933Z,97074.66
2022-08-07T12:00:37.807Z,97084.56
2022-08-07T12:03:41.921Z,97075.47
2022-08-07T12:06:37.013Z,97069.06
2022-08-07T12:09:16.725Z,97072.00
2022-08-07T12:12:10.638Z,97071.22
2022-08-07T12:14:55.780Z,97072.53
2022-08-07T12:17:39.363Z,97071.47
2022-08-07T12:20:30.486Z,97071.47
2022-08-07T12:24:05.919Z,97069.03
2022-08-07T12:26:40.617Z,97067.44
2022-08-07T12:29:20.524Z,97070.63
2022-08-07T12:32:13.584Z,97060.50
2022-08-07T12:34:49.630Z,97067.16
2022-08-07T12:37:23.454Z,97049.22
2022-08-07T12:39:59.603Z,97056.19
2022-08-07T12:42:31.857Z,97059.94
2022-08-07T12:45:05.669Z,97048.44
2022-08-07T12:47:49.236Z,97042.28
2022-08-07T12:50:39.923Z,97049.22
2022-08-07T12:53:27.546Z,97047.63
2022-08-07T12:56:04.206Z,97042.28
2022-08-07T12:58:40.074Z,97037.75
2022-08-07T13:01:27.906Z,97042.28
2022-08-07T13:04:13.685Z,97038.28
2022-08-07T13:08:12.342Z,97036.16
2022-08-07T13:10:39.856Z,97043.38
2022-08-07T13:13:48.591Z,97036.97
2022-08-07T13:16:17.090Z,97031.34
2022-08-07T13:18:54.356Z,97036.97
2022-08-07T13:21:50.583Z,97029.50
2022-08-07T13:24:25.696Z,97022.53
2022-08-07T13:27:02.953Z,97007.03
2022-08-07T13:29:42.402Z,97012.63
2022-08-07T13:32:32.558Z,97009.69
2022-08-07T13:35:10.251Z,97003.81
2022-08-07T13:37:58.514Z,97003.03
2022-08-07T13:40:35.645Z,97003.03
2022-08-07T13:43:13.351Z,96999.00
2022-08-07T13:46:10.766Z,96999.53
2022-08-07T13:48:38.494Z,96999.53
2022-08-07T13:51:28.409Z,96982.16
2022-08-07T13:54:01.799Z,96989.13
2022-08-07T13:56:35.683Z,96989.34
2022-08-07T13:59:12.606Z,96985.06
2022-08-07T14:02:03.677Z,96983.47
2022-08-07T14:04:35.379Z,96984.53
2022-08-07T14:07:10.068Z,96977.31
2022-08-07T14:10:01.297Z,96983.75
2022-08-07T14:12:41.766Z,96979.72
2022-08-07T14:15:19.135Z,96981.84
2022-08-07T14:18:24.113Z,96968.97
2022-08-07T14:20:48.788Z,96968.44
2022-08-07T14:23:31.459Z,96967.91
2022-08-07T14:26:12.628Z,96966.28
2022-08-07T14:29:08.754Z,96969.50
2022-08-07T14:31:56.104Z,96962.56
2022-08-07T14:37:17.004Z,96936.59
2022-08-07T14:40:16.828Z,96946.72
2022-08-07T14:43:00.966Z,96955.00
2022-08-07T14:45:47.071Z,96944.03
2022-08-07T14:48:19.748Z,96948.03
2022-08-07T14:50:51.259Z,96944.56
2022-08-07T14:54:03.467Z,96953.66
2022-08-07T14:56:13.187Z,96951.78
2022-08-07T14:58:48.060Z,96948.56
2022-08-07T15:01:22.714Z,96950.47
2022-08-07T15:03:52.794Z,96947.78
2022-08-07T15:06:25.444Z,96949.94
2022-08-07T15:08:54.959Z,96942.19
2022-08-07T15:11:53.227Z,96932.81
2022-08-07T15:14:21.033Z,96942.75
2022-08-07T15:17:00.707Z,96949.72
2022-08-07T15:19:44.078Z,96942.75
2022-08-07T15:22:29.538Z,96940.34
2022-08-07T15:25:16.724Z,96938.75
2022-08-07T15:31:04.959Z,96933.66
2022-08-07T15:33:33.876Z,96934.19
2022-08-07T15:36:07.607Z,96941.44
2022-08-07T15:38:51.866Z,96931.31
2022-08-07T15:42:45.295Z,96937.72
2022-08-07T15:44:23.594Z,96928.38
2022-08-07T15:46:58.315Z,96930.78
2022-08-07T15:50:06.078Z,96938.53
2022-08-07T15:52:30.525Z,96930.78
2022-08-07T15:55:02.811Z,96925.69
2022-08-07T15:57:47.785Z,96929.44
2022-08-07T16:00:31.503Z,96914.47
2022-08-07T16:03:05.182Z,96919.81
2022-08-07T16:05:36.137Z,96913.69
2022-08-07T16:08:30.539Z,96912.88
2022-08-07T16:11:26.994Z,96914.47
2022-08-07T16:14:00.914Z,96914.47
2022-08-07T16:16:49.390Z,96911.00
2022-08-07T16:19:59.512Z,96908.31
2022-08-07T16:22:55.328Z,96913.94
2022-08-07T16:25:54.251Z,96908.06
2022-08-07T16:30:07.781Z,96909.16
2022-08-07T16:31:51.452Z,96900.09
2022-08-07T16:34:33.759Z,96900.66
2022-08-07T16:38:03.571Z,96901.69
2022-08-07T16:41:01.548Z,96906.00
2022-08-07T16:44:02.709Z,96904.38
2022-08-07T16:47:05.582Z,96900.66
2022-08-07T16:50:27.836Z,96903.03
2022-08-07T16:52:57.411Z,96906.00
2022-08-07T16:55:47.004Z,96899.81
2022-08-07T16:58:23.737Z,96895.28
2022-08-07T17:01:10.042Z,96897.16
2022-08-07T17:03:59.399Z,96896.34
2022-08-07T17:06:46.509Z,96889.13
2022-08-07T17:10:07.049Z,96891.00
2022-08-07T17:12:44.765Z,96892.09
2022-08-07T17:15:44.467Z,96905.47
2022-08-07T17:18:19.833Z,96902.25
2022-08-07T17:20:54.080Z,96900.66
2022-08-07T17:23:44.468Z,96901.75
2022-08-07T17:26:23.603Z,96907.09
2022-08-07T17:30:12.619Z,96907.09
2022-08-07T17:32:30.883Z,96908.97
2022-08-07T17:35:50.030Z,96910.81
2022-08-07T17:38:05.974Z,96908.16
2022-08-07T17:40:42.619Z,96915.09
2022-08-07T17:43:18.546Z,96915.09
2022-08-07T17:45:55.147Z,96922.03
2022-08-07T17:48:33.420Z,96922.34
2022-08-07T17:51:08.962Z,96911.91
2022-08-07T17:54:00.983Z,96918.03
2022-08-07T17:56:32.865Z,96912.16
2022-08-07T17:59:17.145Z,96914.31
2022-08-07T18:01:56.908Z,96917.56
2022-08-07T18:04:34.647Z,96917.03
2022-08-07T18:12:43.098Z,96926.69
2022-08-07T18:25:40.328Z,96943.56
2022-08-07T18:31:18.442Z,96951.09
2022-08-07T18:38:58.179Z,96955.09
2022-08-07T18:40:42.592Z,96959.91
2022-08-07T18:43:57.258Z,96967.13
2022-08-07T18:46:32.971Z,96979.41
2022-08-07T18:50:30.813Z,96980.19
2022-08-07T18:52:33.982Z,96980.47
2022-08-07T18:55:43.173Z,96985.28
2022-08-07T18:58:17.158Z,96990.59
2022-08-07T19:03:49.569Z,97001.75
2022-08-07T19:06:33.827Z,97009.78
2022-08-07T19:09:09.253Z,97005.47
2022-08-07T19:12:15.991Z,97023.38
2022-08-07T19:16:03.623Z,97019.63
2022-08-07T19:18:11.335Z,97015.03
2022-08-07T19:21:08.660Z,97016.63
2022-08-07T19:23:58.061Z,97025.94
2022-08-07T19:26:55.529Z,97035.22
2022-08-07T19:31:05.487Z,97037.06
2022-08-07T19:32:26.521Z,97034.34
2022-08-07T19:35:02.756Z,97046.34
2022-08-07T19:37:55.580Z,97055.38
2022-08-07T19:40:31.889Z,97055.84
2022-08-07T19:43:09.169Z,97055.81
2022-08-07T19:46:04.897Z,97059.97
2022-08-07T19:48:42.614Z,97059.38
2022-08-07T19:51:19.254Z,97059.25
2022-08-07T19:54:31.145Z,97053.84
2022-08-07T19:57:59.946Z,97054.91
2022-08-07T19:59:40.509Z,97060.44
2022-08-07T20:02:19.643Z,97048.91
2022-08-07T20:04:51.986Z,97052.00
2022-08-07T20:07:47.106Z,97055.63
2022-08-07T20:10:35.397Z,97054.50
2022-08-07T20:13:07.218Z,97059.16
2022-08-07T20:15:51.061Z,97043.88
2022-08-07T20:18:32.205Z,97042.44
2022-08-07T20:21:21.252Z,97048.75
2022-08-07T20:23:54.358Z,97046.53
2022-08-07T20:26:32.833Z,97041.09
2022-08-07T20:29:46.493Z,97051.59
2022-08-07T20:32:03.901Z,97037.09
2022-08-07T20:34:50.070Z,97037.19
2022-08-07T20:37:22.751Z,97041.53
2022-08-07T20:40:02.103Z,97032.69
2022-08-07T20:42:33.355Z,97034.31
2022-08-07T20:45:01.991Z,97031.75
2022-08-07T20:47:55.425Z,97037.72
2022-08-07T20:50:24.385Z,97047.69
2022-08-07T20:52:52.884Z,97036.75
2022-08-07T20:55:23.547Z,97045.44
2022-08-07T20:58:02.550Z,97045.44
2022-08-07T21:00:42.194Z,97040.44
2022-08-07T21:03:12.900Z,97035.13
2022-08-07T21:05:54.522Z,97039.88
2022-08-07T21:08:38.079Z,97032.41
2022-08-07T21:11:10.512Z,97037.16
2022-08-07T21:13:57.858Z,97032.09
2022-08-07T21:16:37.724Z,97036.25
2022-08-07T21:19:15.816Z,97036.97
2022-08-07T21:21:57.497Z,97036.06
2022-08-07T21:24:33.262Z,97030.44
2022-08-07T21:27:10.137Z,97030.94
2022-08-07T21:29:52.883Z,97034.53
2022-08-07T21:32:48.590Z,97026.72
2022-08-07T21:35:34.470Z,97031.34
2022-08-07T21:38:21.581Z,97038.09
2022-08-07T21:41:09.953Z,97028.13
2022-08-07T21:43:55.788Z,97036.44
2022-08-07T21:46:33.102Z,97035.53
2022-08-07T21:49:15.139Z,97037.06
2022-08-07T21:51:55.711Z,97048.91
2022-08-07T21:54:31.977Z,97045.38
2022-08-07T21:57:31.434Z,97046.31
2022-08-07T22:00:22.074Z,97045.72
2022-08-07T22:02:58.543Z,97050.09
2022-08-07T22:05:44.200Z,97045.97
2022-08-07T22:08:18.841Z,97051.41
2022-08-07T22:10:50.637Z,97057.41
2022-08-07T22:13:24.231Z,97058.41
2022-08-07T22:16:40.096Z,97051.53
2022-08-07T22:19:07.271Z,97050.38
2022-08-07T22:22:02.237Z,97054.16
2022-08-07T22:24:35.257Z,97050.84
2022-08-07T22:27:11.373Z,97058.91
2022-08-07T22:29:48.268Z,97055.09
2022-08-07T22:32:25.359Z,97055.00
2022-08-07T22:34:55.453Z,97059.13
2022-08-07T22:38:01.873Z,97054.75
2022-08-07T22:40:25.895Z,97065.00
2022-08-07T22:43:03.668Z,97059.38
2022-08-07T22:46:40.584Z,97053.72
2022-08-07T22:49:02.350Z,97058.66
2022-08-07T22:51:53.339Z,97062.19
2022-08-07T22:54:49.170Z,97062.63
2022-08-07T22:57:41.790Z,97061.25
2022-08-07T23:00:16.803Z,97070.47
2022-08-07T23:02:58.551Z,97061.13
2022-08-07T23:06:10.153Z,97066.06
2022-08-07T23:08:55.791Z,97070.78
2022-08-07T23:11:52.501Z,97063.09
2022-08-07T23:14:38.745Z,97066.97
2022-08-07T23:17:30.201Z,97074.78
2022-08-07T23:20:51.101Z,97073.19
2022-08-07T23:24:05.608Z,97070.31
2022-08-07T23:26:50.440Z,97072.72
2022-08-07T23:30:39.546Z,97068.22
2022-08-07T23:34:20.670Z,97068.91
2022-08-07T23:36:17.360Z,97072.47
2022-08-07T23:38:59.783Z,97073.72
2022-08-07T23:41:47.632Z,97069.09
2022-08-07T23:44:47.080Z,97069.56
2022-08-07T23:47:30.638Z,97069.41
2022-08-07T23:50:30.331Z,97066.19
2022-08-07T23:53:15.213Z,97068.84
2022-08-07T23:55:52.844Z,97070.34
2022-08-07T23:58:27.174Z,97069.97
